Time;durP1;ratioP1;P1;durP2;ratioP2;P2;SDS_P1;SDS_P2;PMS_P1;PMS_P2;Temp;Humidity;BMP_temperature;BMP_pressure;BME280_temperature;BME280_humidity;BME280_pressure;Samples;Min_cycle;Max_cycle;Signal;HPM_P1;HPM_P2
2023/06/16 00:00:48;;;;;;;;;;;;;;;10.98;100.00;98843.41;135818;1277;22527;-70
2023/06/16 00:04:10;;;;;;;;;;;;;;;10.79;100.00;98837.63;135823;1277;22537;-69
2023/06/16 00:07:13;;;;;;;;;;;;;;;10.66;100.00;98831.95;135857;1277;22501;-72
2023/06/16 00:10:15;;;;;;;;;;;;;;;10.58;100.00;98832.45;135761;1259;22760;-69
2023/06/16 00:13:17;;;;;;;;;;;;;;;10.50;100.00;98832.41;135778;1277;22503;-66
2023/06/16 00:16:20;;;;;;;;;;;;;;;10.45;100.00;98829.86;135801;1277;22517;-68
2023/06/16 00:19:27;;;;;;;;;;;;;;;10.44;100.00;98829.74;135832;1277;22490;-68
2023/06/16 00:22:29;;;;;;;;;;;;;;;10.46;100.00;98830.91;135829;1277;22520;-68
2023/06/16 00:25:32;;;;;;;;;;;;;;;10.42;100.00;98829.89;135788;1277;22532;-69
2023/06/16 00:28:34;;;;;;;;;;;;;;;10.35;100.00;98832.23;135789;1277;22514;-69
2023/06/16 00:31:36;;;;;;;;;;;;;;;10.26;100.00;98833.83;135823;1277;22497;-68
2023/06/16 00:34:39;;;;;;;;;;;;;;;10.17;100.00;98826.83;135809;1277;22500;-68
2023/06/16 00:37:41;;;;;;;;;;;;;;;10.12;100.00;98827.79;135797;1277;22606;-69
2023/06/16 00:40:44;;;;;;;;;;;;;;;9.98;100.00;98823.05;135824;1277;25220;-70
2023/06/16 00:43:46;;;;;;;;;;;;;;;9.96;100.00;98820.38;135819;1277;22523;-68
2023/06/16 00:46:49;;;;;;;;;;;;;;;9.99;100.00;98817.20;135829;1277;22516;-69
2023/06/16 00:49:51;;;;;;;;;;;;;;;9.93;100.00;98817.00;135796;1277;22528;-68
2023/06/16 00:52:53;;;;;;;;;;;;;;;9.90;100.00;98815.31;135823;1277;22498;-69
2023/06/16 00:55:56;;;;;;;;;;;;;;;9.87;100.00;98817.19;135774;1277;22505;-70
2023/06/16 00:58:58;;;;;;;;;;;;;;;9.87;100.00;98814.20;135817;1277;22512;-69
2023/06/16 01:02:01;;;;;;;;;;;;;;;9.90;100.00;98809.14;135813;1277;22579;-70
2023/06/16 01:05:03;;;;;;;;;;;;;;;9.94;100.00;98807.87;135845;1277;22508;-70
2023/06/16 01:08:09;;;;;;;;;;;;;;;10.03;100.00;98807.72;135794;1277;22512;-72
2023/06/16 01:11:12;;;;;;;;;;;;;;;10.05;100.00;98809.67;135743;1277;22576;-68
2023/06/16 01:14:15;;;;;;;;;;;;;;;10.02;100.00;98806.02;135796;1277;22631;-69
2023/06/16 01:17:21;;;;;;;;;;;;;;;9.96;100.00;98810.55;135822;1277;22541;-69
2023/06/16 01:20:23;;;;;;;;;;;;;;;9.93;100.00;98809.52;135789;1277;22505;-69
2023/06/16 01:23:26;;;;;;;;;;;;;;;9.98;100.00;98807.30;135816;1259;22646;-69
2023/06/16 01:26:28;;;;;;;;;;;;;;;10.03;100.00;98806.30;135804;1277;22527;-70
2023/06/16 01:29:36;;;;;;;;;;;;;;;10.03;100.00;98804.23;135786;1277;22557;-68
2023/06/16 01:32:38;;;;;;;;;;;;;;;10.10;100.00;98805.38;135807;1277;22508;-68
2023/06/16 01:35:41;;;;;;;;;;;;;;;10.04;100.00;98803.42;135806;1277;22507;-67
2023/06/16 01:38:43;;;;;;;;;;;;;;;10.07;100.00;98804.48;135814;1259;22498;-67
2023/06/16 01:41:46;;;;;;;;;;;;;;;10.00;100.00;98798.95;135824;1277;22502;-70
2023/06/16 01:44:48;;;;;;;;;;;;;;;9.82;100.00;98798.60;135812;1277;22528;-69
2023/06/16 01:47:51;;;;;;;;;;;;;;;9.72;100.00;98796.93;135735;1277;22610;-69
2023/06/16 01:50:53;;;;;;;;;;;;;;;9.63;100.00;98795.52;135826;1276;22507;-69
2023/06/16 01:53:55;;;;;;;;;;;;;;;9.52;100.00;98791.23;135786;1259;24217;-72
2023/06/16 01:56:58;;;;;;;;;;;;;;;9.42;100.00;98790.11;135802;1277;22529;-70
2023/06/16 02:00:00;;;;;;;;;;;;;;;9.34;100.00;98790.54;135836;1277;22516;-69
2023/06/16 02:03:03;;;;;;;;;;;;;;;9.32;100.00;98794.32;135807;1277;22515;-70
2023/06/16 02:06:06;;;;;;;;;;;;;;;9.36;100.00;98796.19;135784;1277;22505;-71
2023/06/16 02:09:09;;;;;;;;;;;;;;;9.24;100.00;98799.99;135835;1277;25371;-70
2023/06/16 02:12:12;;;;;;;;;;;;;;;9.13;100.00;98801.10;135770;1277;22763;-69
2023/06/16 02:15:15;;;;;;;;;;;;;;;9.11;100.00;98798.61;135805;1277;25198;-68
2023/06/16 02:18:17;;;;;;;;;;;;;;;9.04;100.00;98803.72;135787;1263;22497;-69
2023/06/16 02:21:19;;;;;;;;;;;;;;;9.01;100.00;98800.71;135807;1277;22567;-69
2023/06/16 02:24:22;;;;;;;;;;;;;;;9.04;100.00;98802.13;135802;1277;22536;-69
2023/06/16 02:27:24;;;;;;;;;;;;;;;9.03;100.00;98797.17;135822;1277;22511;-69
2023/06/16 02:30:27;;;;;;;;;;;;;;;8.98;100.00;98796.73;135807;1277;22519;-68
2023/06/16 02:33:31;;;;;;;;;;;;;;;8.99;100.00;98796.82;135784;1277;22530;-68
2023/06/16 02:36:36;;;;;;;;;;;;;;;9.00;100.00;98799.20;135791;1277;22610;-69
2023/06/16 02:39:39;;;;;;;;;;;;;;;9.08;100.00;98796.85;135776;1277;22500;-70
2023/06/16 02:42:41;;;;;;;;;;;;;;;9.17;100.00;98798.46;135782;1277;22620;-69
2023/06/16 02:45:44;;;;;;;;;;;;;;;9.19;100.00;98795.39;135830;1277;22518;-67
2023/06/16 02:48:46;;;;;;;;;;;;;;;9.22;100.00;98797.67;135813;1277;22504;-69
2023/06/16 02:51:50;;;;;;;;;;;;;;;9.26;100.00;98801.28;135834;1259;22504;-68
2023/06/16 02:54:52;;;;;;;;;;;;;;;9.25;100.00;98800.12;135815;1278;22534;-70
2023/06/16 02:57:54;;;;;;;;;;;;;;;9.23;100.00;98801.61;135808;1278;22528;-68
2023/06/16 03:00:57;;;;;;;;;;;;;;;9.14;100.00;98802.46;135807;1277;22508;-70
2023/06/16 03:04:00;;;;;;;;;;;;;;;9.14;100.00;98802.11;135833;1277;22505;-67
2023/06/16 03:07:02;;;;;;;;;;;;;;;9.20;100.00;98802.64;135787;1277;22523;-70
2023/06/16 03:10:07;;;;;;;;;;;;;;;9.26;100.00;98802.85;135848;1277;22517;-69
2023/06/16 03:13:09;;;;;;;;;;;;;;;9.28;100.00;98802.73;135759;1277;22512;-68
2023/06/16 03:16:12;;;;;;;;;;;;;;;9.30;100.00;98805.95;135804;1277;22610;-68
2023/06/16 03:19:14;;;;;;;;;;;;;;;9.37;100.00;98808.02;135781;1277;22509;-67
2023/06/16 03:22:16;;;;;;;;;;;;;;;9.33;100.00;98813.60;135800;1277;22516;-70
2023/06/16 03:25:21;;;;;;;;;;;;;;;9.37;100.00;98811.30;135788;1277;22533;-68
2023/06/16 03:28:25;;;;;;;;;;;;;;;9.46;100.00;98809.09;135644;1275;22575;-67
2023/06/16 03:31:27;;;;;;;;;;;;;;;9.55;100.00;98808.54;135726;1278;22522;-70
2023/06/16 03:34:30;;;;;;;;;;;;;;;9.72;100.00;98806.00;135702;1278;22502;-67
2023/06/16 03:37:34;;;;;;;;;;;;;;;9.75;100.00;98810.04;135656;1278;22507;-67
2023/06/16 03:40:37;;;;;;;;;;;;;;;9.81;100.00;98808.10;135704;1278;22529;-68
2023/06/16 03:43:40;;;;;;;;;;;;;;;9.80;100.00;98806.76;135735;1278;22508;-67
2023/06/16 03:46:43;;;;;;;;;;;;;;;9.87;100.00;98803.04;135703;1278;22504;-67
2023/06/16 03:49:46;;;;;;;;;;;;;;;10.00;100.00;98808.77;135666;1278;22535;-69
2023/06/16 03:52:48;;;;;;;;;;;;;;;9.98;100.00;98806.77;135736;1263;22512;-67
2023/06/16 03:55:51;;;;;;;;;;;;;;;9.99;100.00;98806.35;135708;1278;22508;-68
2023/06/16 03:58:55;;;;;;;;;;;;;;;10.13;100.00;98798.88;135715;1278;22523;-66
2023/06/16 04:01:57;;;;;;;;;;;;;;;10.29;100.00;98798.98;135686;1278;22512;-67
2023/06/16 04:05:00;;;;;;;;;;;;;;;10.59;100.00;98801.60;135713;1278;22528;-70
2023/06/16 04:08:03;;;;;;;;;;;;;;;10.99;100.00;98806.63;135699;1277;22496;-71
2023/06/16 04:11:05;;;;;;;;;;;;;;;11.36;100.00;98808.15;135681;1278;24151;-70
2023/06/16 04:14:09;;;;;;;;;;;;;;;11.67;100.00;98805.27;135674;1278;22525;-64
2023/06/16 04:17:11;;;;;;;;;;;;;;;11.98;100.00;98802.22;135600;1278;22529;-63
2023/06/16 04:20:14;;;;;;;;;;;;;;;12.27;100.00;98804.46;136826;1278;23101;-68
2023/06/16 04:23:16;;;;;;;;;;;;;;;12.49;100.00;98803.48;135591;1259;22513;-69
2023/06/16 04:26:22;;;;;;;;;;;;;;;12.71;100.00;98800.36;135629;1278;22541;-69
2023/06/16 04:29:25;;;;;;;;;;;;;;;12.97;100.00;98798.00;135573;1278;24407;-69
2023/06/16 04:32:28;;;;;;;;;;;;;;;13.22;100.00;98796.41;135648;1278;22501;-71
2023/06/16 04:35:31;;;;;;;;;;;;;;;13.24;100.00;98794.16;135689;1278;22509;-70
2023/06/16 04:38:34;;;;;;;;;;;;;;;13.41;100.00;98793.15;135692;1278;23894;-70
2023/06/16 04:41:36;;;;;;;;;;;;;;;13.66;100.00;98792.19;135699;1278;24256;-73
2023/06/16 04:44:40;;;;;;;;;;;;;;;13.86;100.00;98791.77;135683;1278;22520;-71
2023/06/16 04:47:42;;;;;;;;;;;;;;;14.11;100.00;98797.45;135697;1278;22508;-70
2023/06/16 04:50:45;;;;;;;;;;;;;;;14.31;100.00;98793.49;135672;1259;22519;-70
2023/06/16 04:53:47;;;;;;;;;;;;;;;14.55;100.00;98791.95;135692;1278;22509;-71
2023/06/16 04:56:50;;;;;;;;;;;;;;;14.73;100.00;98794.84;135748;1278;22508;-73
2023/06/16 04:59:52;;;;;;;;;;;;;;;15.00;100.00;98791.81;135695;1278;22508;-69
2023/06/16 05:02:54;;;;;;;;;;;;;;;15.24;100.00;98792.91;135731;1278;22608;-70
2023/06/16 05:05:57;;;;;;;;;;;;;;;15.47;100.00;98787.32;135689;1278;22525;-69
2023/06/16 05:08:59;;;;;;;;;;;;;;;15.68;100.00;98780.53;135731;1278;22781;-71
2023/06/16 05:12:02;;;;;;;;;;;;;;;15.98;100.00;98780.17;135609;1278;24182;-71
2023/06/16 05:15:04;;;;;;;;;;;;;;;16.28;100.00;98776.40;135680;1278;22497;-71
2023/06/16 05:18:07;;;;;;;;;;;;;;;16.57;100.00;98776.58;131639;1278;5372168;-72
2023/06/16 05:21:09;;;;;;;;;;;;;;;16.82;100.00;98776.88;135706;1278;22505;-72
2023/06/16 05:24:12;;;;;;;;;;;;;;;17.25;100.00;98779.54;135710;1278;25217;-68
2023/06/16 05:27:15;;;;;;;;;;;;;;;17.53;100.00;98782.35;135744;1278;25539;-71
2023/06/16 05:30:17;;;;;;;;;;;;;;;17.77;100.00;98784.72;135712;1260;24170;-64
2023/06/16 05:33:20;;;;;;;;;;;;;;;18.13;100.00;98788.70;135710;1278;22508;-65
2023/06/16 05:36:24;;;;;;;;;;;;;;;18.21;100.00;98789.01;135691;1260;25476;-65
2023/06/16 05:39:27;;;;;;;;;;;;;;;18.42;100.00;98788.13;135699;1278;24225;-69
2023/06/16 05:42:29;;;;;;;;;;;;;;;18.71;100.00;98791.92;135700;1278;22500;-71
2023/06/16 05:45:32;;;;;;;;;;;;;;;19.08;100.00;98792.22;135762;1278;22504;-70
2023/06/16 05:48:35;;;;;;;;;;;;;;;19.46;100.00;98790.64;135762;1256;24212;-70
2023/06/16 05:51:37;;;;;;;;;;;;;;;19.54;100.00;98791.05;135740;1278;22520;-70
2023/06/16 05:54:40;;;;;;;;;;;;;;;19.74;100.00;98793.33;135765;1268;24331;-72
2023/06/16 05:57:42;;;;;;;;;;;;;;;19.99;100.00;98789.66;135710;1278;22514;-69
2023/06/16 06:00:45;;;;;;;;;;;;;;;20.16;100.00;98787.65;135724;1278;22550;-70
2023/06/16 06:03:47;;;;;;;;;;;;;;;20.31;100.00;98788.58;135739;1278;22532;-70
2023/06/16 06:06:50;;;;;;;;;;;;;;;20.42;100.00;98789.52;135710;1278;22500;-69
2023/06/16 06:09:52;;;;;;;;;;;;;;;20.52;97.28;98785.33;135714;1278;22511;-70
2023/06/16 06:12:55;;;;;;;;;;;;;;;20.31;93.79;98788.95;135696;1278;22453;-71
2023/06/16 06:16:00;;;;;;;;;;;;;;;20.12;97.73;98787.16;135715;1267;22524;-70
2023/06/16 06:19:02;;;;;;;;;;;;;;;20.28;96.96;98786.54;135736;1278;22674;-70
2023/06/16 06:22:05;;;;;;;;;;;;;;;20.53;91.32;98787.90;135730;1278;22592;-70
2023/06/16 06:25:07;;;;;;;;;;;;;;;20.59;89.52;98788.71;135707;1278;22530;-72
2023/06/16 06:28:10;;;;;;;;;;;;;;;20.72;90.45;98793.07;135730;1278;22531;-74
2023/06/16 06:31:12;;;;;;;;;;;;;;;20.70;88.26;98796.66;135765;1278;22673;-70
2023/06/16 06:34:14;;;;;;;;;;;;;;;20.76;87.99;98797.25;135741;1267;22638;-71
2023/06/16 06:37:18;;;;;;;;;;;;;;;21.08;87.73;98796.63;135735;1278;22508;-65
2023/06/16 06:40:22;;;;;;;;;;;;;;;21.16;84.81;98798.97;135765;1278;22649;-65
2023/06/16 06:43:25;;;;;;;;;;;;;;;21.38;85.24;98795.11;135767;1260;22536;-70
2023/06/16 06:46:27;;;;;;;;;;;;;;;21.77;84.09;98789.20;135753;1278;22532;-74
2023/06/16 06:49:30;;;;;;;;;;;;;;;22.12;83.14;98787.53;135731;1278;22529;-71
2023/06/16 06:52:32;;;;;;;;;;;;;;;22.44;81.22;98791.72;135745;1278;22514;-73
2023/06/16 06:55:35;;;;;;;;;;;;;;;22.67;77.89;98792.90;135758;1278;23945;-70
2023/06/16 06:58:37;;;;;;;;;;;;;;;22.82;75.31;98795.11;135719;1278;24015;-72
2023/06/16 07:01:39;;;;;;;;;;;;;;;23.00;73.18;98794.63;135751;1275;24374;-75
2023/06/16 07:04:42;;;;;;;;;;;;;;;23.26;72.83;98795.13;135728;1278;22501;-71
2023/06/16 07:07:45;;;;;;;;;;;;;;;23.77;72.09;98795.23;135773;1278;22999;-71
2023/06/16 07:10:47;;;;;;;;;;;;;;;24.01;71.14;98795.87;135729;1267;22514;-72
2023/06/16 07:13:50;;;;;;;;;;;;;;;24.27;69.30;98796.23;135647;1278;22531;-71
2023/06/16 07:16:52;;;;;;;;;;;;;;;24.50;66.47;98789.81;135736;1261;22613;-71
2023/06/16 07:19:55;;;;;;;;;;;;;;;24.76;65.54;98786.12;135766;1278;23846;-71
2023/06/16 07:22:57;;;;;;;;;;;;;;;24.87;65.85;98784.74;135728;1278;22509;-73
2023/06/16 07:25:59;;;;;;;;;;;;;;;25.05;62.94;98786.35;135753;1278;22522;-72
2023/06/16 07:29:02;;;;;;;;;;;;;;;25.27;63.85;98781.62;135756;1278;22519;-70
2023/06/16 07:32:05;;;;;;;;;;;;;;;25.51;62.12;98779.59;135707;1278;22526;-72
2023/06/16 07:35:08;;;;;;;;;;;;;;;25.76;62.90;98778.28;135724;1278;22528;-73
2023/06/16 07:38:11;;;;;;;;;;;;;;;25.78;58.12;98778.05;135677;1278;22519;-68
2023/06/16 07:41:13;;;;;;;;;;;;;;;25.61;57.32;98776.91;135744;1278;22501;-66
2023/06/16 07:44:15;;;;;;;;;;;;;;;25.36;57.10;98780.05;135756;1278;25350;-70
2023/06/16 07:47:18;;;;;;;;;;;;;;;25.19;56.83;98783.48;135746;1278;24246;-70
2023/06/16 07:50:20;;;;;;;;;;;;;;;25.27;57.11;98781.22;135715;1278;22517;-70
2023/06/16 07:53:23;;;;;;;;;;;;;;;25.55;56.74;98778.38;135751;1278;22497;-70
2023/06/16 07:56:25;;;;;;;;;;;;;;;25.79;54.84;98778.48;135749;1278;22541;-70
2023/06/16 07:59:28;;;;;;;;;;;;;;;26.06;52.95;98775.21;135741;1278;22536;-70
2023/06/16 08:02:30;;;;;;;;;;;;;;;25.64;52.41;98772.27;135748;1278;22504;-72
2023/06/16 08:05:33;;;;;;;;;;;;;;;25.11;52.61;98773.75;135759;1278;24209;-70
2023/06/16 08:08:36;;;;;;;;;;;;;;;25.37;54.00;98773.48;135775;1278;23161;-70
2023/06/16 08:11:39;;;;;;;;;;;;;;;25.65;51.73;98769.64;135786;1278;22554;-72
2023/06/16 08:14:41;;;;;;;;;;;;;;;25.98;51.06;98764.27;135750;1278;22505;-69
2023/06/16 08:17:44;;;;;;;;;;;;;;;26.26;49.08;98759.45;135816;1278;22497;-70
2023/06/16 08:20:47;;;;;;;;;;;;;;;25.99;48.78;98757.91;135759;1278;22530;-70
2023/06/16 08:23:50;;;;;;;;;;;;;;;26.06;50.00;98759.92;135787;1268;22500;-73
2023/06/16 08:26:53;;;;;;;;;;;;;;;26.55;49.21;98759.21;135766;1268;22504;-71
2023/06/16 08:29:55;;;;;;;;;;;;;;;27.02;48.51;98759.90;135732;1278;22541;-72
2023/06/16 08:32:58;;;;;;;;;;;;;;;27.39;48.51;98760.06;135783;1278;24037;-70
2023/06/16 08:36:01;;;;;;;;;;;;;;;28.02;49.19;98755.68;135753;1278;22528;-70
2023/06/16 08:39:05;;;;;;;;;;;;;;;28.51;47.58;98753.05;135734;1278;22519;-70
2023/06/16 08:42:07;;;;;;;;;;;;;;;28.88;47.18;98754.23;135755;1268;24347;-67
2023/06/16 08:45:10;;;;;;;;;;;;;;;29.17;44.87;98748.58;135778;1278;22517;-70
2023/06/16 08:48:13;;;;;;;;;;;;;;;29.05;43.56;98747.85;135752;1278;22517;-70
2023/06/16 08:51:16;;;;;;;;;;;;;;;29.13;43.49;98747.04;135756;1278;24406;-71
2023/06/16 08:54:18;;;;;;;;;;;;;;;29.04;43.50;98744.20;135735;1278;22531;-72
2023/06/16 08:57:21;;;;;;;;;;;;;;;29.33;42.17;98743.69;135774;1278;22504;-70
2023/06/16 09:00:24;;;;;;;;;;;;;;;29.25;41.26;98746.22;135782;1278;22503;-69
2023/06/16 09:03:27;;;;;;;;;;;;;;;29.10;41.78;98742.13;135757;1278;25574;-69
2023/06/16 09:06:31;;;;;;;;;;;;;;;28.69;40.78;98741.02;135741;1278;24238;-71
2023/06/16 09:09:34;;;;;;;;;;;;;;;28.10;40.70;98738.80;135769;1278;22508;-69
2023/06/16 09:12:36;;;;;;;;;;;;;;;27.64;41.71;98740.88;135772;1276;22512;-69
2023/06/16 09:15:40;;;;;;;;;;;;;;;27.13;42.37;98739.17;135703;1278;22514;-70
2023/06/16 09:18:44;;;;;;;;;;;;;;;26.61;43.36;98741.63;135735;1278;22530;-70
2023/06/16 09:21:47;;;;;;;;;;;;;;;26.40;44.19;98740.84;135773;1254;22534;-68
2023/06/16 09:24:50;;;;;;;;;;;;;;;26.45;43.88;98736.77;135772;1278;25458;-70
2023/06/16 09:27:54;;;;;;;;;;;;;;;26.43;43.09;98732.74;135771;1278;24347;-69
2023/06/16 09:30:57;;;;;;;;;;;;;;;26.17;43.69;98732.02;135776;1278;22507;-70
2023/06/16 09:33:59;;;;;;;;;;;;;;;25.79;45.58;98729.89;135765;1278;22523;-73
2023/06/16 09:37:02;;;;;;;;;;;;;;;25.79;47.05;98729.92;135771;1260;22501;-69
2023/06/16 09:40:05;;;;;;;;;;;;;;;25.82;47.53;98727.77;135759;1278;24375;-69
2023/06/16 09:43:09;;;;;;;;;;;;;;;25.97;47.63;98728.03;135760;1278;22499;-69
2023/06/16 09:46:11;;;;;;;;;;;;;;;26.38;46.15;98722.84;135793;1278;22518;-69
2023/06/16 09:49:14;;;;;;;;;;;;;;;26.89;46.51;98723.91;135781;1278;22507;-72
2023/06/16 09:52:16;;;;;;;;;;;;;;;27.01;45.61;98725.45;135754;1278;22516;-69
2023/06/16 09:55:19;;;;;;;;;;;;;;;26.78;43.85;98716.79;135759;1278;22500;-70
2023/06/16 09:58:21;;;;;;;;;;;;;;;26.08;44.29;98713.96;135750;1278;22655;-70
2023/06/16 10:01:24;;;;;;;;;;;;;;;26.02;45.30;98706.93;135762;1259;24205;-70
2023/06/16 10:04:27;;;;;;;;;;;;;;;25.97;44.53;98704.77;135723;1278;22523;-69
2023/06/16 10:07:30;;;;;;;;;;;;;;;26.18;44.04;98705.11;135749;1278;24335;-69
2023/06/16 10:10:33;;;;;;;;;;;;;;;26.74;45.57;98704.31;135759;1259;24324;-71
2023/06/16 10:13:35;;;;;;;;;;;;;;;27.31;44.74;98696.33;135781;1259;22523;-69
2023/06/16 10:16:38;;;;;;;;;;;;;;;27.60;42.84;98697.58;135710;1254;22519;-69
2023/06/16 10:19:40;;;;;;;;;;;;;;;27.73;43.66;98696.89;135749;1259;22617;-70
2023/06/16 10:22:43;;;;;;;;;;;;;;;28.37;42.85;98692.47;135774;1278;22531;-70
2023/06/16 10:25:45;;;;;;;;;;;;;;;28.61;43.01;98690.86;135729;1278;24265;-72
2023/06/16 10:28:48;;;;;;;;;;;;;;;28.68;43.20;98695.13;135732;1278;22512;-71
2023/06/16 10:31:51;;;;;;;;;;;;;;;28.52;43.02;98688.35;135748;1278;22496;-73
2023/06/16 10:34:56;;;;;;;;;;;;;;;28.24;42.98;98688.52;135751;1260;24336;-70
2023/06/16 10:37:59;;;;;;;;;;;;;;;28.35;43.19;98683.63;135760;1278;22540;-72
2023/06/16 10:41:02;;;;;;;;;;;;;;;29.10;43.73;98685.48;135755;1260;22518;-72
2023/06/16 10:44:04;;;;;;;;;;;;;;;29.52;42.92;98682.25;135755;1278;22547;-68
2023/06/16 10:47:06;;;;;;;;;;;;;;;29.50;42.95;98680.19;135774;1278;22516;-67
2023/06/16 10:50:09;;;;;;;;;;;;;;;29.75;42.10;98679.81;135736;1278;22517;-69
2023/06/16 10:53:12;;;;;;;;;;;;;;;29.77;39.59;98674.52;135764;1278;22546;-69
2023/06/16 10:56:15;;;;;;;;;;;;;;;29.91;41.26;98669.59;135759;1278;22530;-69
2023/06/16 10:59:17;;;;;;;;;;;;;;;29.94;40.19;98666.10;135759;1278;24223;-70
2023/06/16 11:02:19;;;;;;;;;;;;;;;29.90;39.43;98665.64;135721;1278;22502;-70
2023/06/16 11:05:22;;;;;;;;;;;;;;;29.67;38.92;98666.71;135758;1278;22513;-69
2023/06/16 11:08:24;;;;;;;;;;;;;;;29.86;40.91;98664.76;135798;1278;22511;-71
2023/06/16 11:11:27;;;;;;;;;;;;;;;30.38;40.25;98663.39;135757;1278;22608;-72
2023/06/16 11:14:29;;;;;;;;;;;;;;;30.03;39.49;98661.98;135740;1278;25205;-70
2023/06/16 11:17:32;;;;;;;;;;;;;;;29.62;38.93;98656.64;135652;1278;22515;-69
2023/06/16 11:20:34;;;;;;;;;;;;;;;28.80;39.61;98658.89;135705;1278;22512;-70
2023/06/16 11:23:37;;;;;;;;;;;;;;;28.33;39.84;98655.97;135755;1278;26004;-70
2023/06/16 11:26:39;;;;;;;;;;;;;;;28.07;40.93;98655.52;135730;1278;22656;-73
2023/06/16 11:29:42;;;;;;;;;;;;;;;27.96;40.47;98657.92;135751;1259;22622;-69
2023/06/16 11:32:44;;;;;;;;;;;;;;;27.92;41.21;98654.30;135730;1278;22512;-70
2023/06/16 11:35:47;;;;;;;;;;;;;;;28.07;42.16;98651.33;135772;1278;22533;-70
2023/06/16 11:38:49;;;;;;;;;;;;;;;28.44;40.86;98647.84;135772;1278;24349;-70
2023/06/16 11:41:52;;;;;;;;;;;;;;;28.37;40.48;98648.81;135781;1278;22530;-71
2023/06/16 11:44:54;;;;;;;;;;;;;;;27.90;39.75;98646.98;135737;1278;22513;-69
2023/06/16 11:47:56;;;;;;;;;;;;;;;27.56;40.83;98643.98;135748;1278;22524;-68
2023/06/16 11:50:59;;;;;;;;;;;;;;;27.40;40.85;98636.29;135750;1260;22507;-69
2023/06/16 11:54:02;;;;;;;;;;;;;;;27.23;40.10;98633.02;135787;1259;24229;-74
2023/06/16 11:57:05;;;;;;;;;;;;;;;27.10;40.80;98636.05;135796;1278;22511;-71
2023/06/16 12:00:08;;;;;;;;;;;;;;;27.03;41.13;98637.92;135747;1278;25776;-71
2023/06/16 12:03:10;;;;;;;;;;;;;;;26.86;39.54;98635.13;135763;1278;22584;-71
2023/06/16 12:06:13;;;;;;;;;;;;;;;26.62;40.26;98632.43;135794;1278;25362;-71
2023/06/16 12:09:19;;;;;;;;;;;;;;;26.45;40.46;98631.41;135786;1278;22501;-71
2023/06/16 12:12:26;;;;;;;;;;;;;;;26.61;42.62;98626.05;135737;1278;22612;-70
2023/06/16 12:15:28;;;;;;;;;;;;;;;26.63;40.18;98630.31;135789;1278;22516;-70
2023/06/16 12:18:31;;;;;;;;;;;;;;;26.56;40.84;98632.65;135743;1278;22543;-72
2023/06/16 12:21:33;;;;;;;;;;;;;;;26.82;42.78;98631.17;135744;1278;22511;-70
2023/06/16 12:24:37;;;;;;;;;;;;;;;27.23;40.68;98630.29;135764;1278;22504;-70
2023/06/16 12:27:40;;;;;;;;;;;;;;;27.68;40.44;98633.40;135779;1278;22504;-69
2023/06/16 12:30:42;;;;;;;;;;;;;;;28.24;40.34;98627.20;135751;1278;22702;-69
2023/06/16 12:33:45;;;;;;;;;;;;;;;28.07;39.83;98630.66;135751;1278;22534;-71
2023/06/16 12:36:47;;;;;;;;;;;;;;;27.64;39.18;98628.77;135748;1278;22578;-69
2023/06/16 12:39:50;;;;;;;;;;;;;;;27.22;40.76;98627.44;135769;1278;24220;-70
2023/06/16 12:42:52;;;;;;;;;;;;;;;27.12;40.24;98631.39;135787;1259;22542;-69
2023/06/16 12:45:55;;;;;;;;;;;;;;;26.76;40.93;98633.27;135770;1278;22563;-69
2023/06/16 12:48:57;;;;;;;;;;;;;;;26.42;41.17;98633.42;135772;1278;22642;-67
2023/06/16 12:52:00;;;;;;;;;;;;;;;26.04;41.12;98632.73;135767;1278;22528;-67
2023/06/16 12:55:03;;;;;;;;;;;;;;;25.94;41.17;98626.39;135744;1278;22508;-69
2023/06/16 12:58:06;;;;;;;;;;;;;;;26.17;41.45;98627.31;135762;1278;22504;-71
2023/06/16 13:01:08;;;;;;;;;;;;;;;26.47;41.82;98627.58;135804;1278;22592;-70
2023/06/16 13:04:11;;;;;;;;;;;;;;;26.64;41.72;98623.48;135790;1278;22500;-72
2023/06/16 13:07:13;;;;;;;;;;;;;;;26.70;41.75;98621.84;135762;1278;22512;-70
2023/06/16 13:10:16;;;;;;;;;;;;;;;27.05;41.62;98616.19;135771;1278;22496;-69
2023/06/16 13:13:18;;;;;;;;;;;;;;;27.80;40.77;98613.00;135745;1278;22534;-69
2023/06/16 13:19:59;;;;;;;;;;;;;;;28.50;39.27;98610.17;135730;1278;22499;-70
2023/06/16 13:23:01;;;;;;;;;;;;;;;28.48;38.10;98611.39;135700;1278;22512;-68
2023/06/16 13:26:03;;;;;;;;;;;;;;;28.53;38.72;98612.28;135751;1278;22522;-70
2023/06/16 13:29:06;;;;;;;;;;;;;;;28.73;40.04;98606.91;135777;1278;22524;-70
2023/06/16 13:32:08;;;;;;;;;;;;;;;29.28;38.80;98605.31;135738;1278;22507;-70
2023/06/16 13:35:11;;;;;;;;;;;;;;;29.11;37.51;98602.11;135756;1278;22564;-70
2023/06/16 13:38:13;;;;;;;;;;;;;;;28.66;37.56;98598.05;135809;1278;22617;-69
2023/06/16 13:41:15;;;;;;;;;;;;;;;28.53;38.00;98596.84;135718;1259;22634;-70
2023/06/16 13:44:18;;;;;;;;;;;;;;;28.79;38.90;98593.52;135772;1278;22488;-70
2023/06/16 13:47:20;;;;;;;;;;;;;;;28.96;37.18;98586.05;135749;1259;22532;-69
2023/06/16 13:50:23;;;;;;;;;;;;;;;28.90;37.82;98582.08;135792;1278;22511;-69
2023/06/16 13:53:25;;;;;;;;;;;;;;;28.89;37.34;98579.52;135756;1278;22510;-68
2023/06/16 13:56:27;;;;;;;;;;;;;;;29.05;38.57;98580.02;135792;1278;22525;-68
2023/06/16 13:59:30;;;;;;;;;;;;;;;29.57;38.74;98577.21;135748;1278;22504;-69
2023/06/16 14:02:32;;;;;;;;;;;;;;;29.78;37.53;98571.86;135805;1278;22527;-70
2023/06/16 14:05:35;;;;;;;;;;;;;;;29.78;37.12;98575.68;135788;1278;22510;-70
2023/06/16 14:08:37;;;;;;;;;;;;;;;29.53;36.01;98576.38;135745;1278;22983;-73
2023/06/16 14:11:40;;;;;;;;;;;;;;;29.23;37.95;98569.98;135767;1278;22504;-70
2023/06/16 14:14:43;;;;;;;;;;;;;;;29.14;36.71;98564.99;135757;1278;22500;-73
2023/06/16 14:17:45;;;;;;;;;;;;;;;28.68;37.18;98561.79;135774;1278;22509;-70
2023/06/16 14:20:47;;;;;;;;;;;;;;;28.32;37.57;98561.44;135781;1278;22501;-70
2023/06/16 14:23:51;;;;;;;;;;;;;;;27.92;38.30;98565.48;135761;1278;22511;-71
2023/06/16 14:26:53;;;;;;;;;;;;;;;27.45;38.35;98562.75;135730;1278;22541;-70
2023/06/16 14:29:56;;;;;;;;;;;;;;;27.21;39.03;98560.60;135640;1278;23126;-71
2023/06/16 14:32:59;;;;;;;;;;;;;;;27.07;38.91;98564.81;135744;1278;22647;-69
2023/06/16 14:36:02;;;;;;;;;;;;;;;27.00;39.36;98557.52;135738;1278;22518;-70
2023/06/16 14:39:04;;;;;;;;;;;;;;;26.97;39.33;98557.02;135782;1278;24283;-70
2023/06/16 14:42:07;;;;;;;;;;;;;;;27.01;38.91;98558.27;135766;1278;22520;-68
2023/06/16 14:45:09;;;;;;;;;;;;;;;26.97;39.75;98556.28;135751;1278;22511;-70
2023/06/16 14:48:12;;;;;;;;;;;;;;;26.63;40.39;98552.63;135748;1278;22489;-72
2023/06/16 14:51:14;;;;;;;;;;;;;;;26.26;41.08;98549.08;135768;1278;22497;-72
2023/06/16 14:54:17;;;;;;;;;;;;;;;26.02;41.98;98550.88;135768;1256;22627;-68
2023/06/16 14:57:20;;;;;;;;;;;;;;;25.77;41.58;98549.25;135772;1278;22527;-67
2023/06/16 15:00:22;;;;;;;;;;;;;;;25.56;42.41;98545.38;135754;1278;22521;-69
2023/06/16 15:03:25;;;;;;;;;;;;;;;25.54;42.68;98537.02;135764;1278;22507;-68
2023/06/16 15:06:27;;;;;;;;;;;;;;;25.61;43.13;98532.35;135758;1278;22523;-70
2023/06/16 15:09:29;;;;;;;;;;;;;;;25.48;43.95;98532.64;135759;1278;22572;-69
2023/06/16 15:12:32;;;;;;;;;;;;;;;25.51;43.38;98536.42;135767;1278;22501;-73
2023/06/16 15:15:35;;;;;;;;;;;;;;;25.50;44.27;98533.33;135738;1278;22500;-72
2023/06/16 15:18:38;;;;;;;;;;;;;;;25.23;44.39;98530.42;135787;1278;22537;-69
2023/06/16 15:21:40;;;;;;;;;;;;;;;25.09;44.76;98528.59;135798;1278;22511;-70
2023/06/16 15:24:43;;;;;;;;;;;;;;;25.07;45.39;98526.96;135782;1278;22638;-69
2023/06/16 15:27:45;;;;;;;;;;;;;;;25.23;45.02;98525.19;135694;1278;24595;-70
2023/06/16 15:30:48;;;;;;;;;;;;;;;25.49;44.79;98520.55;135766;1278;22489;-69
2023/06/16 15:33:50;;;;;;;;;;;;;;;25.64;43.63;98519.02;135752;1278;22517;-69
2023/06/16 15:36:52;;;;;;;;;;;;;;;25.81;44.22;98514.85;135790;1278;22510;-71
2023/06/16 15:39:55;;;;;;;;;;;;;;;25.72;43.29;98516.13;135796;1278;22519;-72